Time;durP1;ratioP1;P1;durP2;ratioP2;P2;SDS_P1;SDS_P2;PMS_P1;PMS_P2;Temp;Humidity;BMP_temperature;BMP_pressure;BME280_temperature;BME280_humidity;BME280_pressure;Samples;Min_cycle;Max_cycle;Signal;HPM_P1;HPM_P2
2023/03/31 00:02:14;;;;;;;5.93;5.03;;;;;;;9.86;68.13;95693.34;4970740;28;20170;-67
2023/03/31 00:04:44;;;;;;;4.80;4.00;;;;;;;9.85;68.04;95695.13;4970697;28;20181;-67
2023/03/31 00:07:14;;;;;;;4.90;4.27;;;;;;;9.87;67.68;95700.28;4970392;28;20970;-66
2023/03/31 00:09:44;;;;;;;6.60;4.70;;;;;;;9.94;67.22;95686.78;4970504;28;20471;-66
2023/03/31 00:12:11;;;;;;;6.63;4.87;;;;;;;9.87;67.66;95681.94;4970450;28;20417;-67
2023/03/31 00:14:36;;;;;;;6.03;4.30;;;;;;;9.79;67.92;95676.25;4970360;28;20409;-66
2023/03/31 00:17:03;;;;;;;6.10;4.27;;;;;;;9.47;69.01;95677.00;4970043;28;20887;-67
2023/03/31 00:19:32;;;;;;;11.30;4.80;;;;;;;9.54;68.84;95675.75;4970553;28;20165;-67
2023/03/31 00:22:00;;;;;;;5.60;3.53;;;;;;;9.48;69.16;95670.81;4970602;28;20767;-67
2023/03/31 00:24:27;;;;;;;7.30;3.93;;;;;;;9.50;68.86;95657.66;4971202;28;20409;-67
2023/03/31 00:26:53;;;;;;;7.87;4.57;;;;;;;9.35;69.48;95664.50;4969762;28;20440;-66
2023/03/31 00:29:18;;;;;;;12.63;5.17;;;;;;;9.59;68.67;95659.81;4970049;28;21300;-66
2023/03/31 00:31:44;;;;;;;6.80;5.10;;;;;;;9.40;69.38;95659.03;4970110;28;20170;-66
2023/03/31 00:34:09;;;;;;;5.70;4.50;;;;;;;9.54;68.48;95648.69;4970011;28;20178;-67
2023/03/31 00:36:44;;;;;;;8.27;4.53;;;;;;;9.42;69.40;95655.41;4969660;28;20557;-67
2023/03/31 00:39:10;;;;;;;8.43;4.00;;;;;;;9.48;68.48;95656.91;4969982;28;20269;-67
2023/03/31 00:41:37;;;;;;;7.07;4.40;;;;;;;9.58;68.65;95660.72;4969994;28;20504;-67
2023/03/31 00:44:17;;;;;;;7.13;4.57;;;;;;;9.56;68.79;95659.09;4969990;28;20177;-67
2023/03/31 00:47:01;;;;;;;6.27;4.23;;;;;;;9.50;69.19;95652.44;4969719;28;20835;-66
2023/03/31 00:49:47;;;;;;;5.83;4.03;;;;;;;9.24;69.93;95633.66;4969891;28;20507;-67
2023/03/31 00:52:20;;;;;;;8.53;4.30;;;;;;;9.27;69.57;95632.66;4970332;28;20412;-64
2023/03/31 00:54:50;;;;;;;4.80;3.53;;;;;;;9.48;68.91;95620.22;4969783;28;20417;-66
2023/03/31 00:57:15;;;;;;;5.33;4.40;;;;;;;9.51;68.45;95625.28;4969066;28;20508;-65
2023/03/31 00:59:55;;;;;;;8.87;5.70;;;;;;;9.55;68.24;95616.38;4969744;28;20947;-68
2023/03/31 01:02:24;;;;;;;6.30;4.27;;;;;;;9.55;69.02;95608.50;4969747;28;20280;-66
2023/03/31 01:04:54;;;;;;;7.57;5.30;;;;;;;9.62;68.03;95603.78;4969535;28;20409;-67
2023/03/31 01:07:25;;;;;;;7.00;4.40;;;;;;;9.69;68.03;95594.69;4969155;28;20541;-67
2023/03/31 01:09:56;;;;;;;9.10;4.20;;;;;;;9.68;68.54;95598.22;4969451;28;20461;-66
2023/03/31 01:12:22;;;;;;;7.40;3.70;;;;;;;9.57;68.25;95597.94;4969448;28;20413;-66
2023/03/31 01:14:49;;;;;;;7.00;4.77;;;;;;;9.38;69.31;95596.28;4969893;28;20409;-66
2023/03/31 01:17:17;;;;;;;5.13;3.77;;;;;;;9.55;68.69;95590.16;4969002;28;20531;-66
2023/03/31 01:20:13;;;;;;;8.03;4.63;;;;;;;9.59;68.63;95601.31;4969317;28;20970;-66
2023/03/31 01:22:44;;;;;;;8.10;4.77;;;;;;;9.48;69.28;95591.41;4969178;28;20502;-66
2023/03/31 01:25:33;;;;;;;8.33;4.77;;;;;;;9.14;70.07;95581.84;4969136;28;20491;-67
2023/03/31 01:28:15;;;;;;;5.07;4.53;;;;;;;9.17;70.05;95589.56;4968941;28;20496;-67
2023/03/31 01:31:13;;;;;;;7.57;3.87;;;;;;;9.35;69.85;95585.13;4969063;28;20457;-66
2023/03/31 01:34:15;;;;;;;7.73;4.30;;;;;;;9.51;68.97;95583.38;4952261;28;20421;-67
2023/03/31 01:36:53;;;;;;;7.30;4.53;;;;;;;9.59;68.24;95582.97;4968499;28;20393;-67
2023/03/31 01:39:56;;;;;;;9.53;5.20;;;;;;;9.54;68.91;95585.84;4968966;28;20409;-66
2023/03/31 01:43:00;;;;;;;8.63;4.43;;;;;;;9.69;68.51;95558.84;4968686;28;20454;-67
2023/03/31 01:45:38;;;;;;;4.93;4.10;;;;;;;9.73;68.77;95568.25;4961416;28;20499;-67
2023/03/31 01:48:13;;;;;;;6.07;4.13;;;;;;;9.81;67.88;95565.19;4968682;28;21093;-65
2023/03/31 01:50:53;;;;;;;7.73;4.40;;;;;;;9.70;68.26;95559.69;4968665;28;20505;-66
2023/03/31 01:53:28;;;;;;;13.27;6.60;;;;;;;9.48;69.82;95554.75;4967258;28;20448;-66
2023/03/31 01:56:15;;;;;;;5.60;4.80;;;;;;;9.18;70.86;95551.97;4968176;28;20527;-66
2023/03/31 01:59:10;;;;;;;7.50;5.00;;;;;;;9.40;70.36;95559.53;4968443;28;20456;-65
2023/03/31 02:02:13;;;;;;;5.50;4.63;;;;;;;9.54;69.04;95547.41;4968560;28;20839;-66
2023/03/31 02:04:47;;;;;;;9.17;5.30;;;;;;;9.26;70.10;95553.28;4968559;28;20408;-67
2023/03/31 02:07:26;;;;;;;7.17;4.93;;;;;;;9.24;70.32;95555.13;4968139;28;20861;-67
2023/03/31 02:09:58;;;;;;;8.70;4.60;;;;;;;9.28;70.28;95555.78;4968299;28;20540;-67
2023/03/31 02:12:27;;;;;;;6.90;4.50;;;;;;;9.70;69.10;95563.13;4968454;28;21223;-67
2023/03/31 02:14:55;;;;;;;10.33;4.67;;;;;;;9.37;70.33;95544.84;4968163;28;20509;-68
2023/03/31 02:17:31;;;;;;;7.33;4.40;;;;;;;9.34;71.01;95550.25;4967820;28;20433;-68
2023/03/31 02:20:04;;;;;;;8.00;4.10;;;;;;;9.46;71.17;95546.97;4968179;28;20413;-65
2023/03/31 02:22:35;;;;;;;9.63;4.50;;;;;;;9.51;71.09;95555.41;4968152;28;20416;-67
2023/03/31 02:25:02;;;;;;;7.70;5.40;;;;;;;9.72;70.51;95560.44;4967868;28;20405;-66
2023/03/31 02:27:32;;;;;;;7.57;4.87;;;;;;;9.69;70.34;95560.63;4967610;28;20954;-67
2023/03/31 02:29:58;;;;;;;7.93;4.73;;;;;;;9.82;70.52;95558.19;4967962;28;20456;-68
2023/03/31 02:32:34;;;;;;;7.60;4.80;;;;;;;9.96;70.55;95553.84;4968012;28;20986;-67
2023/03/31 02:35:00;;;;;;;5.50;4.50;;;;;;;10.03;69.52;95553.53;4969329;28;20412;-68
2023/03/31 02:37:28;;;;;;;9.20;4.93;;;;;;;9.97;69.43;95554.72;4967396;28;20425;-67
2023/03/31 02:39:56;;;;;;;12.00;5.63;;;;;;;9.95;70.25;95548.72;4967625;28;20405;-67
2023/03/31 02:42:22;;;;;;;9.43;4.60;;;;;;;9.91;70.80;95547.19;4967588;28;20548;-67
2023/03/31 02:44:48;;;;;;;5.00;4.50;;;;;;;9.72;71.68;95544.72;4967665;28;20443;-67
2023/03/31 02:47:17;;;;;;;8.50;5.50;;;;;;;9.79;71.20;95545.25;4967458;28;20463;-68
2023/03/31 02:49:51;;;;;;;5.63;4.30;;;;;;;9.66;72.60;95539.81;4967772;28;20229;-65
2023/03/31 02:52:50;;;;;;;7.20;4.30;;;;;;;9.69;72.42;95547.53;4967675;28;20396;-66
2023/03/31 02:55:37;;;;;;;8.87;5.03;;;;;;;9.91;71.37;95544.56;4967722;28;20412;-68
2023/03/31 02:58:06;;;;;;;6.37;4.77;;;;;;;9.91;71.03;95524.44;4965955;28;20444;-66
2023/03/31 03:00:43;;;;;;;7.47;5.10;;;;;;;10.02;71.17;95494.19;4967578;28;20718;-65
2023/03/31 03:03:27;;;;;;;7.20;4.47;;;;;;;9.56;72.69;95463.50;4967701;28;20412;-66
2023/03/31 03:06:04;;;;;;;8.00;5.27;;;;;;;9.63;72.30;95437.81;4967294;28;20417;-66
2023/03/31 03:08:54;;;;;;;6.10;4.50;;;;;;;9.37;74.62;95439.25;4966067;28;20471;-66
2023/03/31 03:11:47;;;;;;;9.47;5.23;;;;;;;9.58;73.60;95422.38;4966774;28;20441;-66
2023/03/31 03:14:51;;;;;;;7.83;4.87;;;;;;;9.64;73.54;95419.41;4967745;28;20423;-67
2023/03/31 03:17:42;;;;;;;5.10;4.70;;;;;;;9.25;74.18;95412.81;4965781;28;20451;-67
2023/03/31 03:20:09;;;;;;;6.27;5.30;;;;;;;9.12;74.22;95398.72;4970359;28;20429;-66
2023/03/31 03:22:39;;;;;;;7.70;5.27;;;;;;;9.38;74.15;95402.53;4971533;28;20538;-65
2023/03/31 03:25:08;;;;;;;5.90;5.40;;;;;;;9.56;73.38;95407.66;4971340;28;20499;-68
2023/03/31 03:27:34;;;;;;;9.17;6.00;;;;;;;9.60;73.90;95396.09;4971351;28;20472;-66
2023/03/31 03:30:02;;;;;;;5.70;5.00;;;;;;;9.76;72.51;95399.53;4970016;28;21036;-67
2023/03/31 03:32:28;;;;;;;9.83;5.97;;;;;;;9.63;73.64;95399.38;4951539;29;20440;-68
2023/03/31 03:34:53;;;;;;;10.00;5.77;;;;;;;9.79;72.88;95388.03;4951893;29;20421;-68
2023/03/31 03:37:19;;;;;;;13.03;6.30;;;;;;;9.92;72.25;95386.38;4951726;29;20202;-69
2023/03/31 03:39:44;;;;;;;12.00;6.30;;;;;;;10.02;72.07;95391.97;4951780;29;20177;-67
2023/03/31 03:42:10;;;;;;;16.93;5.80;;;;;;;10.01;72.09;95383.25;4951751;29;20182;-68
2023/03/31 03:44:35;;;;;;;9.43;6.03;;;;;;;10.07;71.57;95382.06;4951841;29;20174;-68
2023/03/31 03:47:01;;;;;;;10.70;5.90;;;;;;;10.13;71.47;95377.31;4951405;28;20648;-68
2023/03/31 03:49:26;;;;;;;6.90;5.90;;;;;;;10.00;71.53;95371.06;4951594;28;20563;-67
2023/03/31 03:51:52;;;;;;;6.30;5.57;;;;;;;9.96;71.92;95367.78;4966285;28;20208;-68
2023/03/31 03:54:17;;;;;;;11.27;6.40;;;;;;;9.94;71.79;95346.09;4951566;29;20588;-68
2023/03/31 03:56:43;;;;;;;8.20;5.33;;;;;;;9.70;73.03;95347.47;4951079;28;20181;-68
2023/03/31 03:59:10;;;;;;;11.10;6.90;;;;;;;9.66;73.76;95331.13;4951610;29;20822;-65
2023/03/31 04:01:36;;;;;;;12.87;6.80;;;;;;;9.78;72.53;95324.31;4951507;28;20586;-66
2023/03/31 04:04:02;;;;;;;8.53;6.43;;;;;;;9.77;72.85;95320.00;4951436;29;20517;-67
2023/03/31 04:06:27;;;;;;;14.33;6.43;;;;;;;9.81;73.29;95316.28;4951127;28;20292;-67
2023/03/31 04:08:53;;;;;;;11.40;7.03;;;;;;;9.93;72.79;95312.94;4951202;29;20509;-65
2023/03/31 04:11:18;;;;;;;13.37;6.93;;;;;;;9.83;73.04;95303.94;4951523;29;20789;-66
2023/03/31 04:13:45;;;;;;;9.40;6.90;;;;;;;9.74;73.89;95299.22;4951470;28;20171;-67
2023/03/31 04:16:10;;;;;;;10.33;7.00;;;;;;;9.62;73.84;95290.31;4950869;29;20208;-67
2023/03/31 04:18:41;;;;;;;8.80;6.90;;;;;;;9.35;75.55;95297.09;4951141;29;20429;-67
2023/03/31 04:21:11;;;;;;;9.80;7.70;;;;;;;9.46;75.12;95282.47;4951129;28;20178;-66
2023/03/31 04:23:37;;;;;;;10.10;6.37;;;;;;;9.54;74.48;95292.50;4950829;29;20416;-67
2023/03/31 04:26:07;;;;;;;8.77;6.70;;;;;;;9.70;74.40;95287.22;4950881;28;20933;-65
2023/03/31 04:28:33;;;;;;;12.57;6.93;;;;;;;9.68;74.18;95270.75;4950797;28;20517;-66
2023/03/31 04:31:00;;;;;;;15.03;6.23;;;;;;;9.61;74.99;95265.03;4956966;28;21353;-67
2023/03/31 04:33:25;;;;;;;8.47;7.07;;;;;;;9.60;75.21;95265.13;4969900;28;20401;-65
2023/03/31 04:35:51;;;;;;;13.70;7.13;;;;;;;9.79;74.03;95265.72;4969569;28;20405;-66
2023/03/31 04:38:22;;;;;;;15.27;8.00;;;;;;;9.70;74.41;95258.41;4969778;28;20201;-67
2023/03/31 04:40:50;;;;;;;14.50;7.93;;;;;;;9.60;74.51;95241.56;4969761;28;20256;-66
2023/03/31 04:43:16;;;;;;;21.33;8.43;;;;;;;9.49;74.93;95235.16;4969929;28;20500;-66
2023/03/31 04:45:41;;;;;;;12.13;7.50;;;;;;;9.54;74.60;95232.25;4969586;28;20448;-66
2023/03/31 04:48:07;;;;;;;9.10;5.93;;;;;;;9.49;75.75;95218.59;4969714;28;20429;-67
2023/03/31 04:50:33;;;;;;;9.50;7.40;;;;;;;9.42;74.97;95202.41;4969667;28;20193;-67
2023/03/31 04:52:58;;;;;;;22.87;8.93;;;;;;;9.38;75.74;95210.53;4969622;28;20448;-66
2023/03/31 04:55:24;;;;;;;40.63;10.50;;;;;;;9.21;76.28;95195.81;4969634;28;20506;-66
2023/03/31 04:57:50;;;;;;;14.27;7.43;;;;;;;9.42;75.74;95175.38;4969420;28;20239;-66
2023/03/31 05:00:16;;;;;;;10.07;7.80;;;;;;;9.60;74.60;95163.00;4969644;28;20228;-66
2023/03/31 05:02:42;;;;;;;14.77;7.73;;;;;;;9.62;74.26;95166.34;4969471;28;20789;-65
2023/03/31 05:05:09;;;;;;;21.63;9.30;;;;;;;9.67;74.85;95145.97;4969616;28;20495;-66
2023/03/31 05:07:35;;;;;;;13.27;7.90;;;;;;;9.37;76.02;95152.09;4969347;28;20280;-65
2023/03/31 05:10:00;;;;;;;15.13;7.20;;;;;;;9.59;75.28;95153.44;4969347;28;20558;-66
2023/03/31 05:12:25;;;;;;;10.50;7.50;;;;;;;9.71;74.17;95156.16;4969580;28;20166;-66
2023/03/31 05:14:51;;;;;;;10.80;7.13;;;;;;;9.72;75.09;95157.84;4969335;28;20181;-65
2023/03/31 05:17:16;;;;;;;9.13;7.27;;;;;;;9.57;75.23;95152.66;4968875;28;20244;-66
2023/03/31 05:19:42;;;;;;;12.90;7.67;;;;;;;9.33;76.11;95140.13;4969189;28;20165;-65
2023/03/31 05:22:08;;;;;;;7.87;7.10;;;;;;;9.43;76.68;95141.25;4969300;28;20265;-65
2023/03/31 05:24:33;;;;;;;7.80;6.50;;;;;;;9.69;75.73;95151.97;4969139;28;20512;-65
2023/03/31 05:26:59;;;;;;;18.23;8.20;;;;;;;9.83;74.84;95143.25;4968606;28;20293;-66
2023/03/31 05:29:24;;;;;;;8.10;7.17;;;;;;;9.94;74.85;95140.81;4968768;28;20210;-66
2023/03/31 05:31:52;;;;;;;10.73;7.33;;;;;;;10.01;74.34;95143.91;4968801;28;20177;-67
2023/03/31 05:34:18;;;;;;;8.33;7.53;;;;;;;10.05;73.88;95133.13;4968923;28;20165;-66
2023/03/31 05:36:44;;;;;;;12.10;7.03;;;;;;;9.95;74.58;95142.50;4968448;28;20424;-67
2023/03/31 05:39:10;;;;;;;11.50;8.13;;;;;;;9.36;77.29;95126.03;4968796;28;20405;-68
2023/03/31 05:41:35;;;;;;;11.53;7.30;;;;;;;9.70;76.21;95136.13;4968381;28;20196;-67
2023/03/31 05:44:01;;;;;;;12.70;8.30;;;;;;;9.97;75.47;95140.63;4968745;28;20551;-67
2023/03/31 05:46:27;;;;;;;14.73;9.60;;;;;;;10.05;75.11;95148.03;4968543;28;20658;-68
2023/03/31 05:48:52;;;;;;;11.53;8.33;;;;;;;9.93;75.30;95147.84;4968688;28;20200;-68
2023/03/31 05:51:18;;;;;;;13.73;9.30;;;;;;;9.92;75.98;95143.53;4968656;28;20903;-65
2023/03/31 05:53:43;;;;;;;12.63;7.87;;;;;;;9.62;77.25;95132.31;4968716;28;20208;-66
2023/03/31 05:56:09;;;;;;;11.30;7.97;;;;;;;9.84;76.37;95145.78;4968389;28;20201;-66
2023/03/31 05:58:36;;;;;;;21.00;10.00;;;;;;;10.11;76.01;95151.09;4968355;28;20316;-66
2023/03/31 06:01:05;;;;;;;14.70;9.67;;;;;;;10.16;75.39;95140.34;4968871;28;20976;-65
2023/03/31 06:03:32;;;;;;;12.80;7.73;;;;;;;10.15;75.44;95128.16;4968928;28;20448;-67
2023/03/31 06:05:57;;;;;;;17.87;9.10;;;;;;;10.13;75.74;95128.28;4968059;28;20483;-66
2023/03/31 06:08:23;;;;;;;23.67;9.20;;;;;;;10.18;75.52;95133.19;4968497;28;20440;-67
2023/03/31 06:10:49;;;;;;;15.67;9.23;;;;;;;10.17;75.79;95142.84;4968225;28;20642;-68
2023/03/31 06:13:15;;;;;;;6.50;4.07;;;;;;;11.43;74.72;95133.88;4968346;28;20420;-69
2023/03/31 06:15:41;;;;;;;30.93;10.43;;;;;;;11.21;71.63;95147.59;4968279;28;20177;-67
2023/03/31 06:18:09;;;;;;;19.03;9.60;;;;;;;10.74;73.35;95147.13;4968374;28;20205;-66
2023/03/31 06:20:35;;;;;;;13.47;10.13;;;;;;;10.37;74.63;95133.78;4968359;28;20220;-66
2023/03/31 06:23:00;;;;;;;23.83;14.17;;;;;;;10.31;74.86;95107.94;4968287;28;20421;-67
2023/03/31 06:25:26;;;;;;;15.03;9.87;;;;;;;10.28;75.19;95123.88;4968159;28;20874;-65
2023/03/31 06:27:51;;;;;;;12.47;9.83;;;;;;;10.27;76.21;95116.06;4967716;28;20201;-67
2023/03/31 06:30:17;;;;;;;18.40;10.10;;;;;;;10.28;75.23;95115.13;4967935;28;20648;-66
2023/03/31 06:32:42;;;;;;;15.53;9.47;;;;;;;10.29;75.50;95112.44;4967858;28;20256;-66
2023/03/31 06:35:08;;;;;;;15.87;9.87;;;;;;;10.34;75.00;95120.00;4968009;28;20239;-66
2023/03/31 06:37:33;;;;;;;11.80;8.77;;;;;;;10.37;74.24;95112.78;4967839;28;20271;-66
2023/03/31 06:39:59;;;;;;;11.93;8.63;;;;;;;10.34;74.87;95107.72;4969202;28;20543;-66
2023/03/31 06:42:24;;;;;;;15.53;9.50;;;;;;;10.34;75.05;95092.00;4968400;28;20288;-66
2023/03/31 06:44:50;;;;;;;12.70;9.50;;;;;;;10.19;75.51;95082.47;4968725;28;20613;-66
2023/03/31 06:47:15;;;;;;;12.33;8.67;;;;;;;9.98;76.42;95076.78;4968142;28;20193;-67
2023/03/31 06:49:40;;;;;;;17.03;9.07;;;;;;;10.10;75.63;95075.19;4964631;28;20209;-66
2023/03/31 06:52:06;;;;;;;18.13;8.73;;;;;;;10.04;75.69;95054.59;4967057;28;20178;-67
2023/03/31 06:54:31;;;;;;;14.67;9.67;;;;;;;10.03;75.63;95047.69;4966316;28;20640;-66
2023/03/31 06:56:57;;;;;;;10.17;9.07;;;;;;;9.98;76.05;95034.88;4966822;28;20205;-66
2023/03/31 06:59:22;;;;;;;16.17;9.37;;;;;;;10.01;76.20;95036.44;4966949;28;20185;-66
2023/03/31 07:01:49;;;;;;;19.40;11.63;;;;;;;10.01;75.87;95031.19;4967066;28;20177;-68
2023/03/31 07:04:15;;;;;;;15.30;9.17;;;;;;;10.14;75.65;95024.25;4967069;28;20640;-64
2023/03/31 07:06:40;;;;;;;13.50;8.97;;;;;;;10.32;75.18;95017.84;4966361;28;20434;-66
2023/03/31 07:09:06;;;;;;;21.93;10.97;;;;;;;10.12;75.83;95013.84;4967009;28;20241;-64
2023/03/31 07:11:31;;;;;;;19.17;10.77;;;;;;;9.93;76.50;95014.19;4967395;28;20180;-66
2023/03/31 07:13:57;;;;;;;11.17;9.17;;;;;;;10.12;75.83;95013.84;4967023;28;20174;-68
2023/03/31 07:16:22;;;;;;;10.30;9.00;;;;;;;9.80;76.57;95012.44;4965804;28;20185;-64
2023/03/31 07:18:49;;;;;;;12.70;9.40;;;;;;;10.05;76.13;94998.63;4966776;28;20196;-66
2023/03/31 07:21:14;;;;;;;13.50;10.90;;;;;;;9.95;76.76;94980.88;4966945;28;20567;-68
2023/03/31 07:23:40;;;;;;;13.80;9.67;;;;;;;10.17;76.31;94989.97;4967297;28;20561;-67
2023/03/31 07:26:06;;;;;;;12.60;9.80;;;;;;;11.04;73.58;94983.34;4966088;28;20177;-67
2023/03/31 07:28:31;;;;;;;12.10;9.33;;;;;;;11.69;69.84;94973.59;4966391;28;20201;-66
2023/03/31 07:30:57;;;;;;;13.60;9.57;;;;;;;12.47;67.46;94974.06;4958256;28;20297;-67
2023/03/31 07:33:23;;;;;;;15.07;8.90;;;;;;;11.87;69.17;94974.94;4963075;28;20255;-66
2023/03/31 07:35:48;;;;;;;13.07;8.77;;;;;;;11.47;70.54;95014.50;4977318;28;20177;-70
2023/03/31 07:38:14;;;;;;;12.63;9.33;;;;;;;11.44;71.46;95031.31;4986036;28;20263;-67
2023/03/31 07:40:40;;;;;;;9.80;7.63;;;;;;;11.27;71.84;95043.91;4971721;28;20190;-68
2023/03/31 07:43:06;;;;;;;10.10;9.10;;;;;;;11.15;72.79;95053.47;4975956;28;20181;-67
2023/03/31 07:45:32;;;;;;;15.13;8.67;;;;;;;11.21;72.41;95140.56;4978545;28;20460;-65
2023/03/31 07:47:58;;;;;;;15.03;9.37;;;;;;;10.95;74.10;95209.69;4970494;28;20243;-65
2023/03/31 07:50:24;;;;;;;15.63;6.93;;;;;;;10.81;72.56;95239.44;4972696;28;20500;-67
2023/03/31 07:52:50;;;;;;;13.50;5.80;;;;;;;10.79;71.91;95238.69;4975381;28;20273;-67
2023/03/31 07:55:16;;;;;;;5.90;4.70;;;;;;;10.64;71.65;95201.16;4986625;28;20235;-68
2023/03/31 07:57:44;;;;;;;8.10;4.47;;;;;;;10.85;70.50;95143.84;4986382;28;20432;-67
2023/03/31 08:00:11;;;;;;;5.20;3.70;;;;;;;10.86;68.36;95121.88;4986780;28;20412;-67
2023/03/31 08:02:37;;;;;;;4.53;3.43;;;;;;;10.98;69.30;95109.72;4987029;28;20440;-66
2023/03/31 08:05:03;;;;;;;4.13;3.23;;;;;;;11.06;68.67;95080.38;4988078;28;21009;-67
2023/03/31 08:07:33;;;;;;;5.10;3.17;;;;;;;11.13;67.90;95050.97;4989646;28;20505;-67
2023/03/31 08:09:58;;;;;;;4.07;2.10;;;;;;;11.23;66.48;95044.13;4990167;28;20530;-66
2023/03/31 08:12:24;;;;;;;3.20;2.43;;;;;;;11.34;64.88;95063.56;4990491;28;20416;-65
2023/03/31 08:14:49;;;;;;;2.27;1.80;;;;;;;11.48;63.24;95084.50;4990082;28;20184;-68
2023/03/31 08:17:15;;;;;;;4.83;1.60;;;;;;;11.59;63.63;95065.34;4988057;28;20725;-65
2023/03/31 08:19:40;;;;;;;5.63;1.63;;;;;;;12.05;63.00;95054.28;4989732;28;20172;-67
2023/03/31 08:22:06;;;;;;;10.33;2.20;;;;;;;12.44;61.11;95050.56;4988412;28;20500;-67
2023/03/31 08:24:31;;;;;;;4.20;1.53;;;;;;;12.56;60.80;95050.63;4989909;28;20184;-68
2023/03/31 08:26:57;;;;;;;3.37;2.30;;;;;;;12.43;61.74;95035.72;4989350;28;20208;-68
2023/03/31 08:29:22;;;;;;;28.63;4.50;;;;;;;12.49;61.07;95037.91;4989448;28;20213;-68
2023/03/31 08:31:48;;;;;;;3.77;2.07;;;;;;;12.70;61.52;95042.53;4975331;28;20182;-67
2023/03/31 08:34:13;;;;;;;4.40;2.70;;;;;;;13.40;59.05;95028.53;4971200;28;20170;-67
2023/03/31 08:36:40;;;;;;;4.70;2.17;;;;;;;13.68;59.10;95027.22;4969838;28;20206;-67
2023/03/31 08:39:06;;;;;;;4.53;1.93;;;;;;;13.93;57.69;95026.09;4970242;28;20176;-68
2023/03/31 08:42:04;;;;;;;3.13;1.70;;;;;;;14.55;56.62;95013.28;4970091;28;20440;-66
2023/03/31 08:44:57;;;;;;;7.40;2.80;;;;;;;15.27;55.85;95006.47;4961998;28;20539;-66
2023/03/31 08:47:25;;;;;;;2.23;1.30;;;;;;;15.09;53.86;95004.38;4969618;28;20433;-65
2023/03/31 08:49:55;;;;;;;4.73;1.50;;;;;;;15.32;53.53;95013.03;4969803;28;20582;-66
2023/03/31 08:52:32;;;;;;;4.43;1.87;;;;;;;15.63;52.54;95010.41;4969711;28;20421;-66
2023/03/31 08:55:00;;;;;;;11.13;2.67;;;;;;;15.88;52.21;95025.03;4969876;28;20902;-66
2023/03/31 08:57:45;;;;;;;7.83;2.17;;;;;;;16.08;51.54;95010.88;4969430;28;20444;-66
2023/03/31 09:00:18;;;;;;;5.73;1.47;;;;;;;16.11;50.37;94995.69;4969922;28;20397;-68
2023/03/31 09:03:04;;;;;;;10.43;2.20;;;;;;;15.84;49.72;94992.69;4969563;28;20416;-66
2023/03/31 09:05:39;;;;;;;1.93;1.30;;;;;;;15.65;50.14;94982.03;4969579;28;20933;-65
2023/03/31 09:08:35;;;;;;;7.30;1.80;;;;;;;15.21;50.66;94979.59;4969284;28;20451;-66
2023/03/31 09:11:05;;;;;;;6.03;2.70;;;;;;;15.11;51.55;94978.69;4969200;28;20823;-66
2023/03/31 09:13:37;;;;;;;3.93;1.73;;;;;;;14.94;51.86;94977.47;4969622;28;20460;-67
2023/03/31 09:16:23;;;;;;;2.70;1.63;;;;;;;14.79;51.57;94981.41;4968352;28;20409;-67
2023/03/31 09:18:51;;;;;;;6.90;1.80;;;;;;;14.91;50.64;94982.19;4969175;28;20926;-66
2023/03/31 09:21:43;;;;;;;2.80;1.77;;;;;;;15.67;50.29;94985.38;4969229;28;20435;-68
2023/03/31 09:24:31;;;;;;;5.10;1.93;;;;;;;16.16;48.37;94985.53;4969510;28;20468;-67
2023/03/31 09:27:04;;;;;;;8.63;1.40;;;;;;;16.37;47.75;94972.19;4969014;28;20440;-67
2023/03/31 09:29:33;;;;;;;3.60;1.50;;;;;;;16.52;47.10;94968.19;4969113;28;20544;-67
2023/03/31 09:32:13;;;;;;;7.93;3.73;;;;;;;16.46;46.15;94974.03;4969049;28;20476;-67
2023/03/31 09:34:38;;;;;;;5.77;1.60;;;;;;;16.86;46.89;94965.13;4969408;28;20428;-66
2023/03/31 09:37:04;;;;;;;3.03;1.43;;;;;;;16.89;46.54;94954.25;4969155;28;20433;-64
2023/03/31 09:39:29;;;;;;;3.80;1.50;;;;;;;16.94;45.50;94965.28;4969333;28;20270;-65
2023/03/31 09:41:55;;;;;;;1.97;1.30;;;;;;;17.05;44.67;94943.91;4969254;28;20189;-66
2023/03/31 09:44:32;;;;;;;3.20;1.30;;;;;;;16.70;45.17;94942.69;4969140;28;20220;-65
2023/03/31 09:47:00;;;;;;;4.60;1.73;;;;;;;16.36;45.69;94929.00;4968558;28;20189;-67
2023/03/31 09:49:31;;;;;;;2.20;1.33;;;;;;;16.35;44.72;94910.63;4969254;28;20466;-66
2023/03/31 09:52:24;;;;;;;7.50;2.43;;;;;;;16.11;45.61;94916.31;4968808;28;20496;-67
2023/03/31 09:54:52;;;;;;;8.37;2.77;;;;;;;16.16;45.59;94900.84;4969147;28;20500;-66
2023/03/31 09:57:29;;;;;;;20.23;4.30;;;;;;;16.48;44.26;94900.59;4968617;28;20437;-66
2023/03/31 10:00:13;;;;;;;14.33;2.90;;;;;;;16.80;43.46;94918.03;4969138;28;20446;-67
2023/03/31 10:02:48;;;;;;;3.93;1.90;;;;;;;16.77;42.66;94910.31;4968685;28;20405;-66
2023/03/31 10:05:35;;;;;;;4.80;1.73;;;;;;;16.63;41.99;94909.78;4968633;28;20437;-65
2023/03/31 10:08:15;;;;;;;2.50;1.37;;;;;;;16.44;41.31;94913.28;4967914;28;20425;-66
2023/03/31 10:10:53;;;;;;;6.37;1.90;;;;;;;16.25;41.96;94913.25;4968250;28;20506;-68
2023/03/31 10:13:25;;;;;;;5.60;1.63;;;;;;;16.03;41.71;94933.72;4968561;28;20446;-65
2023/03/31 10:15:52;;;;;;;2.60;1.50;;;;;;;15.96;43.06;94900.00;4967872;28;20427;-69
2023/03/31 10:18:20;;;;;;;4.33;1.80;;;;;;;15.72;42.67;94892.44;4967848;28;20436;-66
2023/03/31 10:20:51;;;;;;;5.93;1.53;;;;;;;15.85;41.48;94901.81;4966512;28;20431;-67
2023/03/31 10:23:21;;;;;;;3.90;1.43;;;;;;;16.17;40.15;94887.50;4967897;28;20523;-66
2023/03/31 10:25:47;;;;;;;2.87;1.30;;;;;;;16.50;39.53;94866.84;4967713;28;20500;-69
2023/03/31 10:28:19;;;;;;;2.70;1.60;;;;;;;16.16;38.45;94856.72;4967680;28;20967;-66
2023/03/31 10:30:51;;;;;;;4.57;1.70;;;;;;;16.20;37.86;94847.50;4967563;28;20237;-66
2023/03/31 10:33:22;;;;;;;6.60;1.33;;;;;;;15.92;38.24;94849.19;4967692;28;20413;-66
2023/03/31 10:35:49;;;;;;;3.20;1.37;;;;;;;15.91;37.83;94850.16;4968013;28;21113;-69
2023/03/31 10:38:26;;;;;;;3.80;1.50;;;;;;;15.79;38.42;94854.72;4967702;28;20436;-67
2023/03/31 10:40:57;;;;;;;3.60;1.47;;;;;;;15.62;38.72;94845.63;4967862;28;20966;-66
2023/03/31 10:43:29;;;;;;;2.80;1.40;;;;;;;15.70;38.06;94839.69;4967980;28;20409;-66
2023/03/31 10:45:59;;;;;;;5.37;1.40;;;;;;;15.72;37.71;94832.44;4967235;28;20413;-68
2023/03/31 10:48:29;;;;;;;8.43;1.97;;;;;;;15.71;38.10;94841.38;4982233;28;20445;-68
2023/03/31 10:51:00;;;;;;;9.07;2.30;;;;;;;15.68;36.41;94828.38;4967577;28;20476;-69
2023/03/31 10:53:25;;;;;;;3.30;1.30;;;;;;;15.60;36.58;94799.97;4967464;28;20993;-67
2023/03/31 10:56:06;;;;;;;4.90;1.70;;;;;;;15.70;35.69;94794.72;4967140;28;20424;-67
2023/03/31 10:58:59;;;;;;;5.30;1.33;;;;;;;16.09;35.24;94792.09;4967686;28;20197;-66
2023/03/31 11:01:57;;;;;;;3.77;1.50;;;;;;;16.45;35.58;94805.56;4968161;28;21286;-65
2023/03/31 11:04:37;;;;;;;6.10;1.63;;;;;;;16.69;35.35;94802.44;4931562;28;20540;-67
2023/03/31 11:07:28;;;;;;;6.80;1.83;;;;;;;16.64;35.36;94788.78;4966992;28;20425;-67
2023/03/31 11:10:05;;;;;;;2.17;1.30;;;;;;;16.79;35.66;94797.13;4967247;28;20464;-65
2023/03/31 11:12:50;;;;;;;3.30;1.47;;;;;;;16.67;35.25;94784.03;4967531;28;20438;-67
2023/03/31 11:15:24;;;;;;;3.03;1.30;;;;;;;16.69;34.22;94773.28;4967481;28;20472;-65
2023/03/31 11:17:56;;;;;;;2.33;1.23;;;;;;;16.37;34.58;94777.16;4967282;28;20443;-67
2023/03/31 11:20:52;;;;;;;4.17;1.60;;;;;;;16.30;34.80;94784.00;4967416;28;20425;-67
2023/03/31 11:23:27;;;;;;;2.33;1.67;;;;;;;16.64;33.91;94765.78;4967270;28;20786;-67
2023/03/31 11:25:59;;;;;;;3.63;1.50;;;;;;;16.85;33.34;94760.28;4967201;28;20412;-67
2023/03/31 11:28:45;;;;;;;3.73;1.30;;;;;;;17.08;32.95;94765.22;4967123;28;20432;-66
2023/03/31 11:31:31;;;;;;;2.23;1.20;;;;;;;17.17;32.28;94768.78;4967533;28;20464;-67
2023/03/31 11:34:06;;;;;;;2.07;1.30;;;;;;;17.20;31.69;94757.91;4967443;28;20507;-66
2023/03/31 11:36:40;;;;;;;3.37;1.40;;;;;;;17.44;31.61;94762.66;4967183;28;20428;-67
2023/03/31 11:39:43;;;;;;;3.80;1.30;;;;;;;17.34;30.72;94760.88;4967436;28;20416;-66
2023/03/31 11:42:19;;;;;;;4.70;1.60;;;;;;;17.32;31.60;94752.25;4971132;28;20432;-66
2023/03/31 11:44:52;;;;;;;3.23;1.30;;;;;;;17.44;30.72;94776.75;4971027;28;20440;-66
2023/03/31 11:47:20;;;;;;;7.33;1.67;;;;;;;17.38;30.50;94761.41;4970657;28;20507;-66
2023/03/31 11:49:55;;;;;;;5.00;2.30;;;;;;;17.48;30.70;94759.56;4971318;28;20855;-66
2023/03/31 11:52:30;;;;;;;12.00;2.10;;;;;;;17.44;31.35;94752.03;4971090;28;20420;-67
2023/03/31 11:55:14;;;;;;;4.90;1.70;;;;;;;17.20;32.01;94742.84;4970805;28;20992;-66